sensor_id;sensor_type;location;lat;lon;timestamp;pressure;altitude;pressure_sealevel;temperature
9985;BMP180;16737;50.932;6.780;2024-03-06T00:01:04;100335.00;;;12.20
9985;BMP180;16737;50.932;6.780;2024-03-06T00:03:32;100336.00;;;12.20
9985;BMP180;16737;50.932;6.780;2024-03-06T00:06:01;100347.00;;;12.10
9985;BMP180;16737;50.932;6.780;2024-03-06T00:08:28;100349.00;;;12.10
9985;BMP180;16737;50.932;6.780;2024-03-06T00:10:59;100350.00;;;12.10
9985;BMP180;16737;50.932;6.780;2024-03-06T00:13:26;100356.00;;;12.00
9985;BMP180;16737;50.932;6.780;2024-03-06T00:15:53;100357.00;;;12.00
9985;BMP180;16737;50.932;6.780;2024-03-06T00:18:20;100357.00;;;11.90
9985;BMP180;16737;50.932;6.780;2024-03-06T00:20:47;100362.00;;;11.90
9985;BMP180;16737;50.932;6.780;2024-03-06T00:23:15;100366.00;;;11.90
9985;BMP180;16737;50.932;6.780;2024-03-06T00:25:42;100348.00;;;11.80
9985;BMP180;16737;50.932;6.780;2024-03-06T00:28:10;100376.00;;;11.80
9985;BMP180;16737;50.932;6.780;2024-03-06T00:30:37;100370.00;;;11.70
9985;BMP180;16737;50.932;6.780;2024-03-06T00:33:04;100372.00;;;11.70
9985;BMP180;16737;50.932;6.780;2024-03-06T00:35:31;100380.00;;;11.70
9985;BMP180;16737;50.932;6.780;2024-03-06T00:37:58;100367.00;;;11.60
9985;BMP180;16737;50.932;6.780;2024-03-06T00:40:29;100384.00;;;11.60
9985;BMP180;16737;50.932;6.780;2024-03-06T00:42:57;100383.00;;;11.60
9985;BMP180;16737;50.932;6.780;2024-03-06T00:45:25;100388.00;;;11.60
9985;BMP180;16737;50.932;6.780;2024-03-06T00:47:52;100392.00;;;11.60
9985;BMP180;16737;50.932;6.780;2024-03-06T00:50:19;100388.00;;;11.60
9985;BMP180;16737;50.932;6.780;2024-03-06T00:52:47;100385.00;;;11.50
9985;BMP180;16737;50.932;6.780;2024-03-06T00:55:15;100396.00;;;11.50
9985;BMP180;16737;50.932;6.780;2024-03-06T00:57:44;100393.00;;;11.50
9985;BMP180;16737;50.932;6.780;2024-03-06T01:00:12;100392.00;;;11.50
9985;BMP180;16737;50.932;6.780;2024-03-06T01:02:41;100395.00;;;11.50
9985;BMP180;16737;50.932;6.780;2024-03-06T01:05:08;100390.00;;;11.50
9985;BMP180;16737;50.932;6.780;2024-03-06T01:07:38;100397.00;;;11.50
9985;BMP180;16737;50.932;6.780;2024-03-06T01:10:06;100398.00;;;11.50
9985;BMP180;16737;50.932;6.780;2024-03-06T01:12:34;100397.00;;;11.50
9985;BMP180;16737;50.932;6.780;2024-03-06T01:15:03;100403.00;;;11.50
9985;BMP180;16737;50.932;6.780;2024-03-06T01:17:30;100409.00;;;11.50
9985;BMP180;16737;50.932;6.780;2024-03-06T01:19:58;100400.00;;;11.50
9985;BMP180;16737;50.932;6.780;2024-03-06T01:22:25;100409.00;;;11.50
9985;BMP180;16737;50.932;6.780;2024-03-06T01:24:52;100402.00;;;11.50
9985;BMP180;16737;50.932;6.780;2024-03-06T01:27:19;100413.00;;;11.40
9985;BMP180;16737;50.932;6.780;2024-03-06T01:29:46;100415.00;;;11.40
9985;BMP180;16737;50.932;6.780;2024-03-06T01:32:15;100417.00;;;11.40
9985;BMP180;16737;50.932;6.780;2024-03-06T01:34:42;100415.00;;;11.40
9985;BMP180;16737;50.932;6.780;2024-03-06T01:37:09;100420.00;;;11.30
9985;BMP180;16737;50.932;6.780;2024-03-06T01:39:37;100425.00;;;11.30
9985;BMP180;16737;50.932;6.780;2024-03-06T01:42:04;100427.00;;;11.30
9985;BMP180;16737;50.932;6.780;2024-03-06T01:44:31;100418.00;;;11.30
9985;BMP180;16737;50.932;6.780;2024-03-06T01:46:58;100417.00;;;11.30
9985;BMP180;16737;50.932;6.780;2024-03-06T01:49:27;100415.00;;;11.30
9985;BMP180;16737;50.932;6.780;2024-03-06T01:51:56;100421.00;;;11.30
9985;BMP180;16737;50.932;6.780;2024-03-06T01:54:26;100421.00;;;11.30
9985;BMP180;16737;50.932;6.780;2024-03-06T01:56:54;100419.00;;;11.40
9985;BMP180;16737;50.932;6.780;2024-03-06T01:59:22;100421.00;;;11.30
9985;BMP180;16737;50.932;6.780;2024-03-06T02:01:53;100420.00;;;11.30
9985;BMP180;16737;50.932;6.780;2024-03-06T02:04:22;100421.00;;;11.30
9985;BMP180;16737;50.932;6.780;2024-03-06T02:06:51;100417.00;;;11.30
9985;BMP180;16737;50.932;6.780;2024-03-06T02:09:18;100421.00;;;11.20
9985;BMP180;16737;50.932;6.780;2024-03-06T02:11:45;100410.00;;;11.20
9985;BMP180;16737;50.932;6.780;2024-03-06T02:14:13;100414.00;;;11.20
9985;BMP180;16737;50.932;6.780;2024-03-06T02:16:40;100414.00;;;11.10
9985;BMP180;16737;50.932;6.780;2024-03-06T02:19:07;100418.00;;;11.00
9985;BMP180;16737;50.932;6.780;2024-03-06T02:21:36;100418.00;;;11.00
9985;BMP180;16737;50.932;6.780;2024-03-06T02:24:03;100421.00;;;10.90
9985;BMP180;16737;50.932;6.780;2024-03-06T02:26:30;100427.00;;;10.90
9985;BMP180;16737;50.932;6.780;2024-03-06T02:28:58;100419.00;;;10.80
9985;BMP180;16737;50.932;6.780;2024-03-06T02:31:25;100433.00;;;10.80
9985;BMP180;16737;50.932;6.780;2024-03-06T02:33:52;100431.00;;;10.70
9985;BMP180;16737;50.932;6.780;2024-03-06T02:36:19;100428.00;;;10.70
9985;BMP180;16737;50.932;6.780;2024-03-06T02:38:49;100421.00;;;10.70
9985;BMP180;16737;50.932;6.780;2024-03-06T02:41:16;100434.00;;;10.70
9985;BMP180;16737;50.932;6.780;2024-03-06T02:43:43;100430.00;;;10.70
9985;BMP180;16737;50.932;6.780;2024-03-06T02:46:10;100421.00;;;10.70
9985;BMP180;16737;50.932;6.780;2024-03-06T02:48:37;100424.00;;;10.70
9985;BMP180;16737;50.932;6.780;2024-03-06T02:51:05;100418.00;;;10.60
9985;BMP180;16737;50.932;6.780;2024-03-06T02:53:32;100428.00;;;10.60
9985;BMP180;16737;50.932;6.780;2024-03-06T02:56:00;100421.00;;;10.60
9985;BMP180;16737;50.932;6.780;2024-03-06T02:58:27;100427.00;;;10.60
9985;BMP180;16737;50.932;6.780;2024-03-06T03:00:57;100424.00;;;10.50
9985;BMP180;16737;50.932;6.780;2024-03-06T03:03:24;100424.00;;;10.50
9985;BMP180;16737;50.932;6.780;2024-03-06T03:05:51;100436.00;;;10.50
9985;BMP180;16737;50.932;6.780;2024-03-06T03:08:19;100412.00;;;10.40
9985;BMP180;16737;50.932;6.780;2024-03-06T03:10:46;100420.00;;;10.40
9985;BMP180;16737;50.932;6.780;2024-03-06T03:13:15;100419.00;;;10.40
9985;BMP180;16737;50.932;6.780;2024-03-06T03:15:42;100433.00;;;10.30
9985;BMP180;16737;50.932;6.780;2024-03-06T03:18:09;100424.00;;;10.30
9985;BMP180;16737;50.932;6.780;2024-03-06T03:20:36;100422.00;;;10.30
9985;BMP180;16737;50.932;6.780;2024-03-06T03:23:03;100429.00;;;10.20
9985;BMP180;16737;50.932;6.780;2024-03-06T03:25:31;100420.00;;;10.20
9985;BMP180;16737;50.932;6.780;2024-03-06T03:27:59;100409.00;;;10.10
9985;BMP180;16737;50.932;6.780;2024-03-06T03:30:27;100427.00;;;10.00
9985;BMP180;16737;50.932;6.780;2024-03-06T03:32:54;100424.00;;;9.90
9985;BMP180;16737;50.932;6.780;2024-03-06T03:35:21;100440.00;;;9.90
9985;BMP180;16737;50.932;6.780;2024-03-06T03:37:50;100432.00;;;9.80
9985;BMP180;16737;50.932;6.780;2024-03-06T03:40:18;100435.00;;;9.70
9985;BMP180;16737;50.932;6.780;2024-03-06T03:42:46;100433.00;;;9.70
9985;BMP180;16737;50.932;6.780;2024-03-06T03:45:13;100445.00;;;9.60
9985;BMP180;16737;50.932;6.780;2024-03-06T03:47:41;100446.00;;;9.60
9985;BMP180;16737;50.932;6.780;2024-03-06T03:50:09;100451.00;;;9.50
9985;BMP180;16737;50.932;6.780;2024-03-06T03:52:36;100460.00;;;9.50
9985;BMP180;16737;50.932;6.780;2024-03-06T03:55:07;100457.00;;;9.50
9985;BMP180;16737;50.932;6.780;2024-03-06T03:57:34;100464.00;;;9.50
9985;BMP180;16737;50.932;6.780;2024-03-06T04:00:02;100476.00;;;9.50
9985;BMP180;16737;50.932;6.780;2024-03-06T04:02:36;100475.00;;;9.50
9985;BMP180;16737;50.932;6.780;2024-03-06T04:05:06;100483.00;;;9.40
9985;BMP180;16737;50.932;6.780;2024-03-06T04:07:35;100480.00;;;9.40
9985;BMP180;16737;50.932;6.780;2024-03-06T04:10:04;100490.00;;;9.30
9985;BMP180;16737;50.932;6.780;2024-03-06T04:12:31;100483.00;;;9.30
9985;BMP180;16737;50.932;6.780;2024-03-06T04:14:58;100484.00;;;9.20
9985;BMP180;16737;50.932;6.780;2024-03-06T04:17:25;100495.00;;;9.20
9985;BMP180;16737;50.932;6.780;2024-03-06T04:19:52;100480.00;;;9.20
9985;BMP180;16737;50.932;6.780;2024-03-06T04:22:22;100489.00;;;9.10
9985;BMP180;16737;50.932;6.780;2024-03-06T04:24:49;100492.00;;;9.10
9985;BMP180;16737;50.932;6.780;2024-03-06T04:27:16;100495.00;;;9.10
9985;BMP180;16737;50.932;6.780;2024-03-06T04:29:43;100487.00;;;9.20
9985;BMP180;16737;50.932;6.780;2024-03-06T04:32:10;100488.00;;;9.20
9985;BMP180;16737;50.932;6.780;2024-03-06T04:34:37;100496.00;;;9.20
9985;BMP180;16737;50.932;6.780;2024-03-06T04:37:04;100503.00;;;9.20
9985;BMP180;16737;50.932;6.780;2024-03-06T04:39:33;100502.00;;;9.20
9985;BMP180;16737;50.932;6.780;2024-03-06T04:42:00;100507.00;;;9.30
9985;BMP180;16737;50.932;6.780;2024-03-06T04:44:28;100512.00;;;9.30
9985;BMP180;16737;50.932;6.780;2024-03-06T04:46:55;100502.00;;;9.30
9985;BMP180;16737;50.932;6.780;2024-03-06T04:49:22;100510.00;;;9.30
9985;BMP180;16737;50.932;6.780;2024-03-06T04:51:49;100514.00;;;9.30
9985;BMP180;16737;50.932;6.780;2024-03-06T04:54:16;100524.00;;;9.40
9985;BMP180;16737;50.932;6.780;2024-03-06T04:56:44;100529.00;;;9.40
9985;BMP180;16737;50.932;6.780;2024-03-06T04:59:11;100537.00;;;9.40
9985;BMP180;16737;50.932;6.780;2024-03-06T05:01:39;100529.00;;;9.40
9985;BMP180;16737;50.932;6.780;2024-03-06T05:04:06;100537.00;;;9.40
9985;BMP180;16737;50.932;6.780;2024-03-06T05:06:33;100537.00;;;9.40
9985;BMP180;16737;50.932;6.780;2024-03-06T05:09:01;100541.00;;;9.40
9985;BMP180;16737;50.932;6.780;2024-03-06T05:11:30;100540.00;;;9.40
9985;BMP180;16737;50.932;6.780;2024-03-06T05:14:00;100533.00;;;9.40
9985;BMP180;16737;50.932;6.780;2024-03-06T05:16:27;100545.00;;;9.40
9985;BMP180;16737;50.932;6.780;2024-03-06T05:18:54;100541.00;;;9.50
9985;BMP180;16737;50.932;6.780;2024-03-06T05:21:21;100536.00;;;9.50
9985;BMP180;16737;50.932;6.780;2024-03-06T05:23:49;100508.00;;;9.50
9985;BMP180;16737;50.932;6.780;2024-03-06T05:26:15;100529.00;;;9.50
9985;BMP180;16737;50.932;6.780;2024-03-06T05:28:43;100545.00;;;9.60
9985;BMP180;16737;50.932;6.780;2024-03-06T05:31:18;100541.00;;;9.60
9985;BMP180;16737;50.932;6.780;2024-03-06T05:33:47;100547.00;;;9.70
9985;BMP180;16737;50.932;6.780;2024-03-06T05:36:15;100549.00;;;9.70
9985;BMP180;16737;50.932;6.780;2024-03-06T05:38:43;100550.00;;;9.70
9985;BMP180;16737;50.932;6.780;2024-03-06T05:41:10;100563.00;;;9.60
9985;BMP180;16737;50.932;6.780;2024-03-06T05:43:37;100562.00;;;9.60
9985;BMP180;16737;50.932;6.780;2024-03-06T05:46:04;100560.00;;;9.60
9985;BMP180;16737;50.932;6.780;2024-03-06T05:48:32;100558.00;;;9.60
9985;BMP180;16737;50.932;6.780;2024-03-06T05:51:00;100563.00;;;9.60
9985;BMP180;16737;50.932;6.780;2024-03-06T05:53:26;100561.00;;;9.60
9985;BMP180;16737;50.932;6.780;2024-03-06T05:55:53;100573.00;;;9.60
9985;BMP180;16737;50.932;6.780;2024-03-06T05:58:20;100582.00;;;9.60
9985;BMP180;16737;50.932;6.780;2024-03-06T06:00:48;100587.00;;;9.60
9985;BMP180;16737;50.932;6.780;2024-03-06T06:03:15;100583.00;;;9.60
9985;BMP180;16737;50.932;6.780;2024-03-06T06:05:43;100595.00;;;9.60
9985;BMP180;16737;50.932;6.780;2024-03-06T06:08:11;100588.00;;;9.70
9985;BMP180;16737;50.932;6.780;2024-03-06T06:10:38;100596.00;;;9.70
9985;BMP180;16737;50.932;6.780;2024-03-06T06:13:05;100601.00;;;9.70
9985;BMP180;16737;50.932;6.780;2024-03-06T06:15:32;100610.00;;;9.70
9985;BMP180;16737;50.932;6.780;2024-03-06T06:17:59;100613.00;;;9.70
9985;BMP180;16737;50.932;6.780;2024-03-06T06:20:26;100611.00;;;9.80
9985;BMP180;16737;50.932;6.780;2024-03-06T06:22:54;100612.00;;;9.80
9985;BMP180;16737;50.932;6.780;2024-03-06T06:25:22;100622.00;;;9.80
9985;BMP180;16737;50.932;6.780;2024-03-06T06:27:49;100617.00;;;9.80
9985;BMP180;16737;50.932;6.780;2024-03-06T06:30:16;100617.00;;;9.80
9985;BMP180;16737;50.932;6.780;2024-03-06T06:32:44;100628.00;;;9.90
9985;BMP180;16737;50.932;6.780;2024-03-06T06:35:11;100634.00;;;9.90
9985;BMP180;16737;50.932;6.780;2024-03-06T06:37:39;100631.00;;;9.90
9985;BMP180;16737;50.932;6.780;2024-03-06T06:40:09;100629.00;;;9.90
9985;BMP180;16737;50.932;6.780;2024-03-06T06:42:44;100627.00;;;9.90
9985;BMP180;16737;50.932;6.780;2024-03-06T06:45:15;100638.00;;;9.90
9985;BMP180;16737;50.932;6.780;2024-03-06T06:47:43;100642.00;;;9.90
9985;BMP180;16737;50.932;6.780;2024-03-06T06:50:11;100639.00;;;9.90
9985;BMP180;16737;50.932;6.780;2024-03-06T06:52:38;100642.00;;;9.90
9985;BMP180;16737;50.932;6.780;2024-03-06T06:55:08;100654.00;;;9.80
9985;BMP180;16737;50.932;6.780;2024-03-06T06:57:37;100653.00;;;9.80
9985;BMP180;16737;50.932;6.780;2024-03-06T07:00:07;100654.00;;;9.80
9985;BMP180;16737;50.932;6.780;2024-03-06T07:02:37;100663.00;;;9.80
9985;BMP180;16737;50.932;6.780;2024-03-06T07:05:06;100660.00;;;9.80
9985;BMP180;16737;50.932;6.780;2024-03-06T07:07:34;100656.00;;;9.80
9985;BMP180;16737;50.932;6.780;2024-03-06T07:10:02;100675.00;;;9.80
9985;BMP180;16737;50.932;6.780;2024-03-06T07:12:31;100653.00;;;9.80
9985;BMP180;16737;50.932;6.780;2024-03-06T07:14:58;100672.00;;;9.90
9985;BMP180;16737;50.932;6.780;2024-03-06T07:17:25;100677.00;;;9.90
9985;BMP180;16737;50.932;6.780;2024-03-06T07:19:52;100682.00;;;9.90
9985;BMP180;16737;50.932;6.780;2024-03-06T07:22:20;100679.00;;;10.00
9985;BMP180;16737;50.932;6.780;2024-03-06T07:24:47;100680.00;;;10.00
9985;BMP180;16737;50.932;6.780;2024-03-06T07:27:16;100684.00;;;10.10
9985;BMP180;16737;50.932;6.780;2024-03-06T07:29:45;100681.00;;;10.10
9985;BMP180;16737;50.932;6.780;2024-03-06T07:32:13;100692.00;;;10.10
9985;BMP180;16737;50.932;6.780;2024-03-06T07:34:40;100688.00;;;10.20
9985;BMP180;16737;50.932;6.780;2024-03-06T07:37:07;100694.00;;;10.20
9985;BMP180;16737;50.932;6.780;2024-03-06T07:39:34;100696.00;;;10.20
9985;BMP180;16737;50.932;6.780;2024-03-06T07:42:01;100688.00;;;10.30
9985;BMP180;16737;50.932;6.780;2024-03-06T07:44:28;100703.00;;;10.30
9985;BMP180;16737;50.932;6.780;2024-03-06T07:46:57;100703.00;;;10.40
9985;BMP180;16737;50.932;6.780;2024-03-06T07:49:24;100719.00;;;10.50
9985;BMP180;16737;50.932;6.780;2024-03-06T07:51:51;100708.00;;;10.50
9985;BMP180;16737;50.932;6.780;2024-03-06T07:54:18;100715.00;;;10.60
9985;BMP180;16737;50.932;6.780;2024-03-06T07:56:45;100724.00;;;10.70
9985;BMP180;16737;50.932;6.780;2024-03-06T07:59:11;100726.00;;;10.80
9985;BMP180;16737;50.932;6.780;2024-03-06T08:01:41;100736.00;;;10.90
9985;BMP180;16737;50.932;6.780;2024-03-06T08:04:09;100723.00;;;11.00
9985;BMP180;16737;50.932;6.780;2024-03-06T08:06:36;100736.00;;;11.10
9985;BMP180;16737;50.932;6.780;2024-03-06T08:09:05;100743.00;;;11.10
9985;BMP180;16737;50.932;6.780;2024-03-06T08:11:32;100743.00;;;11.20
9985;BMP180;16737;50.932;6.780;2024-03-06T08:14:00;100754.00;;;11.20
9985;BMP180;16737;50.932;6.780;2024-03-06T08:16:28;100758.00;;;11.30
9985;BMP180;16737;50.932;6.780;2024-03-06T08:18:56;100765.00;;;11.40
9985;BMP180;16737;50.932;6.780;2024-03-06T08:21:26;100766.00;;;11.50
9985;BMP180;16737;50.932;6.780;2024-03-06T08:23:53;100766.00;;;11.50
9985;BMP180;16737;50.932;6.780;2024-03-06T08:26:22;100764.00;;;11.60
9985;BMP180;16737;50.932;6.780;2024-03-06T08:28:49;100778.00;;;11.70
9985;BMP180;16737;50.932;6.780;2024-03-06T08:31:17;100751.00;;;11.80
9985;BMP180;16737;50.932;6.780;2024-03-06T08:33:44;100768.00;;;11.80
9985;BMP180;16737;50.932;6.780;2024-03-06T08:36:12;100773.00;;;11.90
9985;BMP180;16737;50.932;6.780;2024-03-06T08:38:41;100779.00;;;11.90
9985;BMP180;16737;50.932;6.780;2024-03-06T08:41:11;100782.00;;;12.00
9985;BMP180;16737;50.932;6.780;2024-03-06T08:43:38;100785.00;;;12.10
9985;BMP180;16737;50.932;6.780;2024-03-06T08:46:05;100786.00;;;12.20
9985;BMP180;16737;50.932;6.780;2024-03-06T08:48:32;100786.00;;;12.20
9985;BMP180;16737;50.932;6.780;2024-03-06T08:50:59;100788.00;;;12.30
9985;BMP180;16737;50.932;6.780;2024-03-06T08:53:26;100789.00;;;12.40
9985;BMP180;16737;50.932;6.780;2024-03-06T08:55:54;100794.00;;;12.50
9985;BMP180;16737;50.932;6.780;2024-03-06T08:58:21;100784.00;;;12.50
9985;BMP180;16737;50.932;6.780;2024-03-06T09:00:48;100797.00;;;12.60
9985;BMP180;16737;50.932;6.780;2024-03-06T09:03:16;100795.00;;;12.70
9985;BMP180;16737;50.932;6.780;2024-03-06T09:05:43;100790.00;;;12.70
9985;BMP180;16737;50.932;6.780;2024-03-06T09:08:10;100813.00;;;12.80
9985;BMP180;16737;50.932;6.780;2024-03-06T09:10:38;100799.00;;;12.90
9985;BMP180;16737;50.932;6.780;2024-03-06T09:13:06;100812.00;;;13.00
9985;BMP180;16737;50.932;6.780;2024-03-06T09:15:33;100810.00;;;13.00
9985;BMP180;16737;50.932;6.780;2024-03-06T09:18:00;100814.00;;;13.00
9985;BMP180;16737;50.932;6.780;2024-03-06T09:20:29;100805.00;;;13.20
9985;BMP180;16737;50.932;6.780;2024-03-06T09:22:56;100811.00;;;13.30
9985;BMP180;16737;50.932;6.780;2024-03-06T09:25:24;100816.00;;;13.40
9985;BMP180;16737;50.932;6.780;2024-03-06T09:27:51;100809.00;;;13.40
9985;BMP180;16737;50.932;6.780;2024-03-06T09:30:20;100818.00;;;13.50
9985;BMP180;16737;50.932;6.780;2024-03-06T09:32:47;100820.00;;;13.60
9985;BMP180;16737;50.932;6.780;2024-03-06T09:35:14;100814.00;;;13.70
9985;BMP180;16737;50.932;6.780;2024-03-06T09:37:45;100821.00;;;13.80
9985;BMP180;16737;50.932;6.780;2024-03-06T09:40:20;100824.00;;;13.80
9985;BMP180;16737;50.932;6.780;2024-03-06T09:42:49;100833.00;;;13.90
9985;BMP180;16737;50.932;6.780;2024-03-06T09:45:19;100838.00;;;14.00
9985;BMP180;16737;50.932;6.780;2024-03-06T09:47:50;100832.00;;;14.10
9985;BMP180;16737;50.932;6.780;2024-03-06T09:50:18;100838.00;;;14.20
9985;BMP180;16737;50.932;6.780;2024-03-06T09:52:51;100851.00;;;14.30
9985;BMP180;16737;50.932;6.780;2024-03-06T09:55:20;100855.00;;;14.30
9985;BMP180;16737;50.932;6.780;2024-03-06T09:57:48;100849.00;;;14.40
9985;BMP180;16737;50.932;6.780;2024-03-06T10:00:16;100851.00;;;14.50
9985;BMP180;16737;50.932;6.780;2024-03-06T10:02:56;100847.00;;;14.60
9985;BMP180;16737;50.932;6.780;2024-03-06T10:05:24;100844.00;;;14.60
9985;BMP180;16737;50.932;6.780;2024-03-06T10:07:51;100857.00;;;14.70
9985;BMP180;16737;50.932;6.780;2024-03-06T10:10:20;100856.00;;;14.80
9985;BMP180;16737;50.932;6.780;2024-03-06T10:12:49;100856.00;;;14.80
9985;BMP180;16737;50.932;6.780;2024-03-06T10:15:16;100859.00;;;14.90
9985;BMP180;16737;50.932;6.780;2024-03-06T10:17:43;100853.00;;;15.00
9985;BMP180;16737;50.932;6.780;2024-03-06T10:20:21;100869.00;;;15.00
9985;BMP180;16737;50.932;6.780;2024-03-06T10:22:53;100863.00;;;15.10
9985;BMP180;16737;50.932;6.780;2024-03-06T10:25:21;100874.00;;;15.20
9985;BMP180;16737;50.932;6.780;2024-03-06T10:28:06;100878.00;;;15.20
9985;BMP180;16737;50.932;6.780;2024-03-06T10:30:35;100878.00;;;15.30
9985;BMP180;16737;50.932;6.780;2024-03-06T10:33:03;100871.00;;;15.30
9985;BMP180;16737;50.932;6.780;2024-03-06T10:35:33;100883.00;;;15.30
9985;BMP180;16737;50.932;6.780;2024-03-06T10:38:01;100892.00;;;15.40
9985;BMP180;16737;50.932;6.780;2024-03-06T10:40:32;100876.00;;;15.40
9985;BMP180;16737;50.932;6.780;2024-03-06T10:43:00;100874.00;;;15.50
9985;BMP180;16737;50.932;6.780;2024-03-06T10:45:45;100873.00;;;15.50
9985;BMP180;16737;50.932;6.780;2024-03-06T10:48:14;100877.00;;;15.60
9985;BMP180;16737;50.932;6.780;2024-03-06T10:50:43;100876.00;;;15.70
9985;BMP180;16737;50.932;6.780;2024-03-06T10:53:12;100879.00;;;15.70
9985;BMP180;16737;50.932;6.780;2024-03-06T10:55:40;100847.00;;;15.80
9985;BMP180;16737;50.932;6.780;2024-03-06T10:58:08;100880.00;;;15.70
9985;BMP180;16737;50.932;6.780;2024-03-06T11:00:37;100883.00;;;15.70
9985;BMP180;16737;50.932;6.780;2024-03-06T11:03:06;100884.00;;;15.70
9985;BMP180;16737;50.932;6.780;2024-03-06T11:05:35;100885.00;;;15.80
9985;BMP180;16737;50.932;6.780;2024-03-06T11:08:07;100887.00;;;15.80
9985;BMP180;16737;50.932;6.780;2024-03-06T11:10:37;100874.00;;;15.90
9985;BMP180;16737;50.932;6.780;2024-03-06T11:13:21;100874.00;;;16.00
9985;BMP180;16737;50.932;6.780;2024-03-06T11:15:49;100893.00;;;16.10
9985;BMP180;16737;50.932;6.780;2024-03-06T11:18:42;100883.00;;;16.10
9985;BMP180;16737;50.932;6.780;2024-03-06T11:21:29;100901.00;;;16.20
9985;BMP180;16737;50.932;6.780;2024-03-06T11:24:15;100891.00;;;16.30
9985;BMP180;16737;50.932;6.780;2024-03-06T11:26:46;100895.00;;;16.30
9985;BMP180;16737;50.932;6.780;2024-03-06T11:29:16;100902.00;;;16.30
9985;BMP180;16737;50.932;6.780;2024-03-06T11:32:11;100893.00;;;16.30
9985;BMP180;16737;50.932;6.780;2024-03-06T11:34:38;100898.00;;;16.40
9985;BMP180;16737;50.932;6.780;2024-03-06T11:37:08;100893.00;;;16.20
9985;BMP180;16737;50.932;6.780;2024-03-06T11:39:39;100902.00;;;16.30
9985;BMP180;16737;50.932;6.780;2024-03-06T11:42:07;100898.00;;;16.30
9985;BMP180;16737;50.932;6.780;2024-03-06T11:44:35;100899.00;;;16.30
9985;BMP180;16737;50.932;6.780;2024-03-06T11:47:04;100898.00;;;16.20
9985;BMP180;16737;50.932;6.780;2024-03-06T11:49:34;100893.00;;;16.30
9985;BMP180;16737;50.932;6.780;2024-03-06T11:52:06;100897.00;;;16.30
9985;BMP180;16737;50.932;6.780;2024-03-06T11:54:34;100896.00;;;16.30
9985;BMP180;16737;50.932;6.780;2024-03-06T11:57:04;100877.00;;;16.40
9985;BMP180;16737;50.932;6.780;2024-03-06T11:59:33;100892.00;;;16.50
9985;BMP180;16737;50.932;6.780;2024-03-06T12:02:04;100894.00;;;16.60
9985;BMP180;16737;50.932;6.780;2024-03-06T12:04:32;100897.00;;;16.70
9985;BMP180;16737;50.932;6.780;2024-03-06T12:07:00;100895.00;;;16.90
9985;BMP180;16737;50.932;6.780;2024-03-06T12:09:31;100889.00;;;17.00
9985;BMP180;16737;50.932;6.780;2024-03-06T12:11:58;100897.00;;;17.10
9985;BMP180;16737;50.932;6.780;2024-03-06T12:14:27;100899.00;;;17.20
9985;BMP180;16737;50.932;6.780;2024-03-06T12:16:58;100903.00;;;17.30
9985;BMP180;16737;50.932;6.780;2024-03-06T12:19:26;100898.00;;;17.40
9985;BMP180;16737;50.932;6.780;2024-03-06T12:21:55;100903.00;;;17.50
9985;BMP180;16737;50.932;6.780;2024-03-06T12:24:25;100906.00;;;17.60
9985;BMP180;16737;50.932;6.780;2024-03-06T12:27:00;100912.00;;;17.70
9985;BMP180;16737;50.932;6.780;2024-03-06T12:29:32;100906.00;;;17.80
9985;BMP180;16737;50.932;6.780;2024-03-06T12:31:59;100904.00;;;17.80
9985;BMP180;16737;50.932;6.780;2024-03-06T12:34:27;100908.00;;;17.90
9985;BMP180;16737;50.932;6.780;2024-03-06T12:36:56;100908.00;;;17.90
9985;BMP180;16737;50.932;6.780;2024-03-06T12:39:23;100901.00;;;18.00
9985;BMP180;16737;50.932;6.780;2024-03-06T12:41:51;100911.00;;;18.00
9985;BMP180;16737;50.932;6.780;2024-03-06T12:44:19;100911.00;;;18.10
9985;BMP180;16737;50.932;6.780;2024-03-06T12:46:48;100902.00;;;18.20
9985;BMP180;16737;50.932;6.780;2024-03-06T12:49:15;100901.00;;;18.20
9985;BMP180;16737;50.932;6.780;2024-03-06T12:51:44;100911.00;;;18.30
9985;BMP180;16737;50.932;6.780;2024-03-06T12:54:11;100901.00;;;18.30
9985;BMP180;16737;50.932;6.780;2024-03-06T12:56:38;100903.00;;;18.40
9985;BMP180;16737;50.932;6.780;2024-03-06T12:59:06;100905.00;;;18.50
9985;BMP180;16737;50.932;6.780;2024-03-06T13:01:35;100912.00;;;18.50
9985;BMP180;16737;50.932;6.780;2024-03-06T13:04:03;100890.00;;;18.50
9985;BMP180;16737;50.932;6.780;2024-03-06T13:06:32;100910.00;;;18.60
9985;BMP180;16737;50.932;6.780;2024-03-06T13:08:59;100902.00;;;18.60
9985;BMP180;16737;50.932;6.780;2024-03-06T13:11:26;100898.00;;;18.60
9985;BMP180;16737;50.932;6.780;2024-03-06T13:13:53;100884.00;;;18.70
9985;BMP180;16737;50.932;6.780;2024-03-06T13:16:20;100901.00;;;18.70
9985;BMP180;16737;50.932;6.780;2024-03-06T13:18:48;100905.00;;;18.70
9985;BMP180;16737;50.932;6.780;2024-03-06T13:21:16;100906.00;;;18.70
9985;BMP180;16737;50.932;6.780;2024-03-06T13:23:43;100902.00;;;18.70
9985;BMP180;16737;50.932;6.780;2024-03-06T13:26:10;100902.00;;;18.60
9985;BMP180;16737;50.932;6.780;2024-03-06T13:28:38;100903.00;;;18.60
9985;BMP180;16737;50.932;6.780;2024-03-06T13:31:05;100895.00;;;18.60
9985;BMP180;16737;50.932;6.780;2024-03-06T13:33:33;100905.00;;;18.60
9985;BMP180;16737;50.932;6.780;2024-03-06T13:36:00;100906.00;;;18.60
9985;BMP180;16737;50.932;6.780;2024-03-06T13:38:29;100902.00;;;18.60
9985;BMP180;16737;50.932;6.780;2024-03-06T13:40:56;100905.00;;;18.60
9985;BMP180;16737;50.932;6.780;2024-03-06T13:43:23;100909.00;;;18.50
9985;BMP180;16737;50.932;6.780;2024-03-06T13:45:51;100894.00;;;18.40
9985;BMP180;16737;50.932;6.780;2024-03-06T13:48:19;100904.00;;;18.40
9985;BMP180;16737;50.932;6.780;2024-03-06T13:50:46;100904.00;;;18.40
9985;BMP180;16737;50.932;6.780;2024-03-06T13:53:14;100907.00;;;18.40
9985;BMP180;16737;50.932;6.780;2024-03-06T13:55:42;100908.00;;;18.40
9985;BMP180;16737;50.932;6.780;2024-03-06T13:58:09;100907.00;;;18.50
9985;BMP180;16737;50.932;6.780;2024-03-06T14:00:37;100916.00;;;18.50
9985;BMP180;16737;50.932;6.780;2024-03-06T14:03:04;100914.00;;;18.60
9985;BMP180;16737;50.932;6.780;2024-03-06T14:05:31;100913.00;;;18.60
9985;BMP180;16737;50.932;6.780;2024-03-06T14:07:58;100910.00;;;18.60
9985;BMP180;16737;50.932;6.780;2024-03-06T14:10:25;100917.00;;;18.70
9985;BMP180;16737;50.932;6.780;2024-03-06T14:12:53;100912.00;;;18.70
9985;BMP180;16737;50.932;6.780;2024-03-06T14:15:21;100918.00;;;18.80
9985;BMP180;16737;50.932;6.780;2024-03-06T14:17:49;100914.00;;;18.90